Paraburdoo, Western Australia

11:30 AM AWST on February 08, 2016 (GMT +0800)
Paraburdoo | | Change Station
CLOSE
Current Station
Airport
Location: Paraburdoo Airport,
Elevation: 1404 ft
Nearby Weather Stations

Elev 1404 ft 23.17 °S, 117.75 °E | Updated 30 minutes ago

Clear
Clear
100 °F
Feels Like 100 °F
N
14
Wind Variable Wind from ENE

Today
High -- | Low -- °F
--% Chance of Precip.
Yesterday
High -- | Low -- °F
Precip. -- in
Pressure 29.95 in
Visibility 6.2 miles
Clouds
Dew Point 39 °F
Humidity 12%
Rainfall 0.00 in
Snow Depth Not available.
5:52 AM 6:53 PM
Waning Crescent, 0% visible
METAR YPBO 080300Z AUTO 07012KT 9999 // NCD 38/04 Q1014
Pressure 29.95 in
Visibility 6.2 miles
Clouds
Dew Point 39 °F
Humidity 12%
Rainfall 0.00 in
Snow Depth Not available.
5:52 AM 6:53 PM
Waning Crescent, 0% visible
METAR YPBO 080300Z AUTO 07012KT 9999 // NCD 38/04 Q1014

10-Day Weather Forecast

No radar image for this location.
×

Almanac

Astronomy

Feb. 08, 2016 Rise Set
Actual Time
Civil Twilight
Nautical Twilight
Astronomical Twilight
Moon
Length of Visible Light
Length of Day
Tomorrow will be .
, % of the Moon is Illuminated

Today's Extremes

Country Highs Country Lows

Community

WunderPhotos

Upload Photos

1,891,377 photos uploaded!

WunderBlog® & News

Nearby

Air Quality

  Air Quality AQ Index Pollutant
Not available.

Snow Depth

Station Depth Elevation

Earthquake Activity

City Distance Mag. Time & Date
Minimum magnitude displayed is 2.5.

Coastal Water Temperatures

Place Temperature

Stations

Nearby Weather Stations

Station Location Temp. Windchill Dew Point Humidity Wind Precip. Elev Updated Type